Time;durP1;ratioP1;P1;durP2;ratioP2;P2;SDS_P1;SDS_P2;PMS_P1;PMS_P2;Temp;Humidity;BMP_temperature;BMP_pressure;BME280_temperature;BME280_humidity;BME280_pressure;Samples;Min_cycle;Max_cycle;Signal;HPM_P1;HPM_P2
2023/03/12 00:01:18;;;;;;;10.00;7.30;;;;;;;-0.30;79.02;96313.78;5049446;28;20229;-63
2023/03/12 00:03:44;;;;;;;8.67;7.73;;;;;;;-0.29;78.91;96315.41;5045711;28;20194;-64
2023/03/12 00:06:10;;;;;;;9.23;8.37;;;;;;;-0.33;78.64;96316.69;5053097;28;20174;-63
2023/03/12 00:08:35;;;;;;;10.97;8.43;;;;;;;-0.36;79.62;96317.84;5052666;28;20198;-63
2023/03/12 00:11:16;;;;;;;11.13;8.17;;;;;;;-0.38;79.66;96316.41;5052309;28;20212;-63
2023/03/12 00:13:42;;;;;;;11.67;8.47;;;;;;;-0.41;79.85;96320.13;5052182;28;20587;-63
2023/03/12 00:16:10;;;;;;;9.80;8.20;;;;;;;-0.43;80.44;96322.06;5053509;28;20174;-64
2023/03/12 00:18:36;;;;;;;9.70;8.70;;;;;;;-0.43;80.20;96322.88;5053592;28;20194;-63
2023/03/12 00:21:02;;;;;;;11.30;9.77;;;;;;;-0.50;81.18;96323.69;5053355;28;20241;-63
2023/03/12 00:23:28;;;;;;;10.63;9.07;;;;;;;-0.50;81.62;96321.94;5053139;28;20658;-63
2023/03/12 00:25:53;;;;;;;10.63;9.40;;;;;;;-0.40;81.29;96319.16;5052762;28;20178;-63
2023/03/12 00:28:19;;;;;;;10.20;9.13;;;;;;;-0.37;81.89;96326.53;5052584;28;20206;-63
2023/03/12 00:30:44;;;;;;;13.17;10.20;;;;;;;-0.39;82.55;96319.97;5052843;28;20210;-64
2023/03/12 00:33:11;;;;;;;10.43;9.30;;;;;;;-0.46;82.93;96320.66;5052990;28;20174;-64
2023/03/12 00:35:37;;;;;;;15.03;9.43;;;;;;;-0.51;84.06;96320.34;5052786;28;20170;-64
2023/03/12 00:38:03;;;;;;;9.67;8.43;;;;;;;-0.48;84.57;96317.44;5052657;28;20334;-64
2023/03/12 00:40:28;;;;;;;14.33;9.73;;;;;;;-0.51;84.76;96317.78;5052721;28;20204;-64
2023/03/12 00:42:54;;;;;;;11.73;10.03;;;;;;;-0.52;85.53;96313.59;5052596;28;20264;-64
2023/03/12 00:45:19;;;;;;;10.87;9.03;;;;;;;-0.58;85.96;96314.28;5052424;28;20304;-63
2023/03/12 00:47:45;;;;;;;14.83;9.40;;;;;;;-0.54;86.14;96305.22;5052417;28;20666;-63
2023/03/12 00:50:10;;;;;;;14.43;9.77;;;;;;;-0.53;86.20;96313.75;5052703;28;20205;-63
2023/03/12 00:52:35;;;;;;;13.40;9.60;;;;;;;-0.53;86.29;96312.00;5051949;28;20185;-63
2023/03/12 00:55:01;;;;;;;12.13;10.90;;;;;;;-0.54;85.75;96302.66;5052476;28;20174;-63
2023/03/12 00:57:26;;;;;;;13.00;11.70;;;;;;;-0.63;86.60;96306.25;5051832;28;20181;-63
2023/03/12 00:59:52;;;;;;;12.67;10.87;;;;;;;-0.61;86.20;96306.88;5050196;28;20313;-64
2023/03/12 01:02:17;;;;;;;15.97;10.97;;;;;;;-0.63;86.54;96301.13;5052097;28;20173;-64
2023/03/12 01:04:43;;;;;;;14.37;10.83;;;;;;;-0.53;86.29;96300.88;5050251;28;20591;-64
2023/03/12 01:07:08;;;;;;;16.77;10.53;;;;;;;-0.59;86.53;96301.56;5052332;28;20185;-63
2023/03/12 01:09:33;;;;;;;12.83;10.50;;;;;;;-0.64;86.98;96303.84;5051121;28;20233;-64
2023/03/12 01:11:59;;;;;;;12.50;10.30;;;;;;;-0.62;86.76;96307.06;5052489;28;20170;-64
2023/03/12 01:14:24;;;;;;;12.60;10.63;;;;;;;-0.60;87.41;96300.75;5051712;28;20174;-63
2023/03/12 01:16:50;;;;;;;13.80;10.77;;;;;;;-0.45;87.26;96300.84;5052163;28;20224;-63
2023/03/12 01:19:15;;;;;;;14.13;10.77;;;;;;;-0.44;87.26;96302.44;5052387;28;20190;-63
2023/03/12 01:21:40;;;;;;;14.80;9.83;;;;;;;-0.45;87.37;96308.56;5052277;28;20597;-63
2023/03/12 01:24:06;;;;;;;12.77;10.80;;;;;;;-0.52;87.65;96308.44;5052046;28;20176;-63
2023/03/12 01:26:32;;;;;;;16.17;10.07;;;;;;;-0.54;87.98;96310.38;5052237;28;20177;-63
2023/03/12 01:28:57;;;;;;;12.47;10.43;;;;;;;-0.55;87.16;96307.97;5052035;28;20212;-63
2023/03/12 01:31:23;;;;;;;13.83;10.50;;;;;;;-0.55;87.52;96306.19;5052119;28;20259;-63
2023/03/12 01:34:35;;;;;;;14.47;9.47;;;;;;;-0.45;86.69;96306.00;5052033;28;20181;-63
2023/03/12 01:37:00;;;;;;;11.97;9.23;;;;;;;-0.36;86.64;96306.75;5050821;28;20178;-64
2023/03/12 01:39:26;;;;;;;10.83;8.40;;;;;;;-0.36;86.70;96304.97;5052220;28;20194;-63
2023/03/12 01:41:51;;;;;;;10.83;8.40;;;;;;;-0.33;87.08;96309.78;5051677;28;20641;-63
2023/03/12 01:44:17;;;;;;;13.00;9.70;;;;;;;-0.34;86.92;96313.34;5051843;28;20174;-63
2023/03/12 01:46:44;;;;;;;12.47;9.40;;;;;;;-0.26;87.38;96304.75;5051849;28;20694;-63
2023/03/12 01:49:32;;;;;;;14.03;10.07;;;;;;;-0.41;88.78;96307.25;5051538;28;22014;-63
2023/03/12 01:52:12;;;;;;;13.97;10.17;;;;;;;-0.33;89.27;96316.69;5050208;28;20192;-63
2023/03/12 01:54:47;;;;;;;12.93;9.30;;;;;;;-0.30;88.60;96311.22;5051940;28;20641;-63
2023/03/12 01:57:22;;;;;;;14.43;10.03;;;;;;;-0.35;89.79;96309.16;5036449;28;20184;-63
2023/03/12 01:59:55;;;;;;;10.37;9.37;;;;;;;-0.34;90.05;96309.97;5042156;28;20219;-63
2023/03/12 02:02:27;;;;;;;11.50;9.97;;;;;;;-0.28;89.92;96310.06;5010217;28;20215;-63
2023/03/12 02:05:10;;;;;;;11.77;8.73;;;;;;;-0.31;90.54;96307.03;5015615;28;20214;-62
2023/03/12 02:07:35;;;;;;;12.87;9.77;;;;;;;-0.26;90.40;96309.91;4999045;28;20293;-63
2023/03/12 02:10:03;;;;;;;11.47;10.00;;;;;;;-0.30;90.66;96317.16;5014936;28;20306;-63
2023/03/12 02:12:28;;;;;;;14.10;9.30;;;;;;;-0.32;91.15;96302.84;5015952;28;20274;-63
2023/03/12 02:14:54;;;;;;;13.33;9.67;;;;;;;-0.29;91.00;96303.31;5015700;28;20255;-63
2023/03/12 02:17:19;;;;;;;13.90;10.47;;;;;;;-0.24;91.01;96305.38;4997960;28;20188;-62
2023/03/12 02:20:09;;;;;;;13.10;9.67;;;;;;;-0.22;91.02;96299.06;5015456;28;20234;-62
2023/03/12 02:22:39;;;;;;;14.53;9.27;;;;;;;-0.29;91.84;96295.59;5015648;28;20179;-63
2023/03/12 02:25:14;;;;;;;11.70;9.30;;;;;;;-0.11;91.46;96300.44;5015272;28;20183;-63
2023/03/12 02:27:41;;;;;;;11.27;10.10;;;;;;;-0.12;91.58;96301.44;5015382;28;20500;-63
2023/03/12 02:30:07;;;;;;;12.43;10.23;;;;;;;-0.19;91.61;96309.06;5015371;28;20229;-63
2023/03/12 02:32:38;;;;;;;14.17;10.77;;;;;;;-0.21;92.17;96302.44;4997622;28;20639;-63
2023/03/12 02:35:05;;;;;;;16.90;11.07;;;;;;;-0.43;93.52;96301.47;4997376;28;20176;-63
2023/03/12 02:37:31;;;;;;;16.13;10.60;;;;;;;-0.37;93.89;96303.38;5015119;28;20183;-63
2023/03/12 02:40:04;;;;;;;13.77;10.07;;;;;;;-0.52;94.88;96299.94;5015245;28;20628;-63
2023/03/12 02:42:30;;;;;;;11.93;10.33;;;;;;;-0.65;96.18;96294.50;5015108;28;20188;-63
2023/03/12 02:44:57;;;;;;;12.40;10.47;;;;;;;-0.54;95.74;96302.66;5015319;28;20606;-63
2023/03/12 02:47:22;;;;;;;15.13;11.03;;;;;;;-0.60;96.06;96298.19;5013685;28;20306;-63
2023/03/12 02:49:48;;;;;;;14.80;10.67;;;;;;;-0.63;96.31;96293.38;5015038;28;20690;-63
2023/03/12 02:52:13;;;;;;;17.10;11.70;;;;;;;-0.59;96.81;96302.38;5013555;28;20206;-63
2023/03/12 02:54:39;;;;;;;13.37;12.00;;;;;;;-0.56;96.57;96296.09;5014874;28;20269;-63
2023/03/12 02:57:04;;;;;;;14.23;11.57;;;;;;;-0.54;95.93;96307.00;5015082;28;20189;-63
2023/03/12 02:59:30;;;;;;;13.57;10.63;;;;;;;-0.57;96.88;96297.06;5014797;28;20207;-63
2023/03/12 03:01:58;;;;;;;11.27;10.20;;;;;;;-0.60;97.45;96303.34;5052568;28;20191;-61
2023/03/12 03:04:25;;;;;;;10.50;9.53;;;;;;;-0.67;97.88;96291.34;5054722;28;20178;-62
2023/03/12 03:06:50;;;;;;;12.87;9.83;;;;;;;-0.59;97.55;96304.94;5054324;28;20596;-63
2023/03/12 03:09:16;;;;;;;11.23;9.43;;;;;;;-0.70;98.24;96292.47;5053359;28;20232;-63
2023/03/12 03:11:41;;;;;;;11.93;9.97;;;;;;;-0.70;98.52;96294.22;5054271;28;20190;-63
2023/03/12 03:14:07;;;;;;;17.00;9.80;;;;;;;-0.70;98.70;96292.47;5054098;28;20174;-63
2023/03/12 03:16:33;;;;;;;12.97;9.60;;;;;;;-0.72;98.76;96293.59;5054220;28;20174;-63
2023/03/12 03:18:58;;;;;;;16.63;9.67;;;;;;;-0.71;98.93;96290.84;5054264;28;20202;-63
2023/03/12 03:21:24;;;;;;;11.57;10.20;;;;;;;-0.75;99.47;96283.63;5054271;28;20210;-63
2023/03/12 03:23:50;;;;;;;11.90;10.17;;;;;;;-0.76;99.65;96279.47;5054089;28;20257;-63
2023/03/12 03:26:19;;;;;;;11.97;10.27;;;;;;;-0.78;100.00;96274.47;5053829;28;20589;-63
2023/03/12 03:28:44;;;;;;;12.17;10.90;;;;;;;-0.70;100.00;96269.31;5052769;28;20237;-63
2023/03/12 03:31:10;;;;;;;16.83;10.57;;;;;;;-0.65;99.68;96273.94;5053965;28;20642;-62
2023/03/12 03:33:37;;;;;;;11.13;9.97;;;;;;;-0.63;99.78;96261.72;5052627;28;20185;-63
2023/03/12 03:36:05;;;;;;;15.47;10.07;;;;;;;-0.59;100.00;96273.25;5054063;28;20181;-63
2023/03/12 03:38:33;;;;;;;12.63;10.53;;;;;;;-0.58;100.00;96265.38;5054092;28;20277;-62
2023/03/12 03:40:58;;;;;;;12.33;8.53;;;;;;;-0.49;100.00;96272.06;5053676;28;20208;-63
2023/03/12 03:43:24;;;;;;;11.67;9.73;;;;;;;-0.57;100.00;96268.75;5054028;28;20177;-61
2023/03/12 03:46:04;;;;;;;10.93;9.33;;;;;;;-0.48;100.00;96275.44;5053884;28;20310;-62
2023/03/12 03:48:29;;;;;;;12.27;9.50;;;;;;;-0.48;100.00;96273.66;5052496;28;20217;-62
2023/03/12 03:51:06;;;;;;;12.83;8.73;;;;;;;-0.45;100.00;96262.25;5052140;28;20262;-63
2023/03/12 03:53:33;;;;;;;10.07;9.13;;;;;;;-0.45;100.00;96275.13;5053334;28;20196;-62
2023/03/12 03:56:10;;;;;;;10.43;8.63;;;;;;;-0.39;100.00;96274.41;5053403;28;20638;-62
2023/03/12 03:58:36;;;;;;;9.30;8.50;;;;;;;-0.35;100.00;96282.59;5053301;28;20244;-63
2023/03/12 04:01:01;;;;;;;10.87;8.43;;;;;;;-0.32;100.00;96274.53;5049544;28;20268;-63
2023/03/12 04:03:27;;;;;;;10.37;8.67;;;;;;;-0.36;100.00;96278.44;5053133;28;20182;-63
2023/03/12 04:05:58;;;;;;;9.57;8.67;;;;;;;-0.25;99.87;96278.84;5052964;28;20186;-63
2023/03/12 04:08:24;;;;;;;11.63;8.10;;;;;;;-0.21;99.81;96279.28;5053101;28;20247;-62
2023/03/12 04:10:50;;;;;;;9.87;7.60;;;;;;;-0.18;99.64;96261.72;5052014;28;20206;-62
2023/03/12 04:13:16;;;;;;;9.93;8.50;;;;;;;-0.18;99.50;96261.72;5051740;28;20182;-62
2023/03/12 04:15:51;;;;;;;10.07;8.20;;;;;;;-0.23;99.83;96263.22;5052780;28;20170;-63
2023/03/12 04:18:16;;;;;;;9.43;7.70;;;;;;;-0.19;100.00;96251.59;5052714;28;20220;-63
2023/03/12 04:20:43;;;;;;;9.03;7.97;;;;;;;-0.24;100.00;96246.97;5052957;28;20253;-63
2023/03/12 04:23:09;;;;;;;11.40;8.20;;;;;;;-0.26;100.00;96258.41;5053409;28;20170;-63
2023/03/12 04:25:35;;;;;;;8.93;8.03;;;;;;;-0.13;100.00;96258.63;5052709;28;20197;-63
2023/03/12 04:28:01;;;;;;;13.23;8.23;;;;;;;-0.19;100.00;96270.44;5052341;28;20284;-63
2023/03/12 04:30:26;;;;;;;9.13;7.53;;;;;;;-0.07;100.00;96265.66;5052564;28;20288;-63
2023/03/12 04:32:52;;;;;;;10.57;8.70;;;;;;;-0.04;100.00;96262.72;5052679;28;20216;-63
2023/03/12 04:35:18;;;;;;;11.93;7.83;;;;;;;0.02;100.00;96268.97;5052698;28;20178;-63
2023/03/12 04:37:44;;;;;;;9.43;8.13;;;;;;;-0.05;100.00;96261.94;5052225;28;20236;-63
2023/03/12 04:40:10;;;;;;;9.43;7.87;;;;;;;-0.06;100.00;96267.28;5052503;28;20294;-63
2023/03/12 04:42:36;;;;;;;8.90;7.63;;;;;;;0.03;100.00;96276.53;5052640;28;20190;-63
2023/03/12 04:45:05;;;;;;;8.30;7.27;;;;;;;0.15;99.30;96271.78;5052528;28;20197;-63
2023/03/12 04:47:32;;;;;;;10.73;7.07;;;;;;;0.15;98.80;96280.31;5052595;28;20174;-63
2023/03/12 04:49:58;;;;;;;10.97;7.93;;;;;;;0.15;98.27;96264.03;5052305;28;20241;-62
2023/03/12 04:52:24;;;;;;;9.37;7.60;;;;;;;0.19;97.97;96267.84;5052245;28;20286;-62
2023/03/12 04:54:49;;;;;;;9.67;7.80;;;;;;;0.22;97.74;96268.34;5052184;28;20170;-63
2023/03/12 04:57:15;;;;;;;9.97;8.10;;;;;;;0.21;97.94;96269.31;5052143;28;20268;-63
2023/03/12 04:59:41;;;;;;;8.97;7.83;;;;;;;0.23;98.10;96267.34;5049512;28;20245;-63
2023/03/12 05:02:06;;;;;;;9.63;8.33;;;;;;;0.19;98.22;96266.09;5051065;28;20217;-61
2023/03/12 05:04:32;;;;;;;10.30;7.87;;;;;;;0.27;97.24;96272.97;5052175;28;20312;-63
2023/03/12 05:06:57;;;;;;;9.00;7.70;;;;;;;0.34;96.58;96266.91;5052332;28;20610;-62
2023/03/12 05:09:23;;;;;;;8.27;7.47;;;;;;;0.48;95.83;96257.59;5051463;28;20735;-63
2023/03/12 05:11:48;;;;;;;8.67;7.87;;;;;;;0.44;96.08;96264.09;5052134;28;20223;-63
2023/03/12 05:14:13;;;;;;;10.93;7.97;;;;;;;0.45;95.99;96263.09;5050946;28;20292;-63
2023/03/12 05:16:39;;;;;;;8.30;7.50;;;;;;;0.55;95.26;96255.94;5050803;28;20174;-63
2023/03/12 05:19:05;;;;;;;9.17;8.00;;;;;;;0.68;94.54;96248.34;5052003;28;20208;-63
2023/03/12 05:21:30;;;;;;;9.17;8.27;;;;;;;0.61;95.05;96251.84;5052289;28;20182;-63
2023/03/12 05:23:56;;;;;;;8.50;7.80;;;;;;;0.53;96.26;96257.88;5052253;28;20177;-63
2023/03/12 05:26:23;;;;;;;11.50;8.67;;;;;;;0.43;97.77;96249.59;5051958;28;20173;-63
2023/03/12 05:28:49;;;;;;;8.50;7.73;;;;;;;0.40;98.89;96245.59;5052066;28;20682;-63
2023/03/12 05:31:14;;;;;;;11.10;8.67;;;;;;;0.42;99.40;96253.16;5050543;28;20243;-63
2023/03/12 05:33:40;;;;;;;9.03;8.17;;;;;;;0.52;98.79;96255.47;5052012;28;20185;-61
2023/03/12 05:36:06;;;;;;;10.40;8.30;;;;;;;0.44;100.00;96251.22;5052150;28;20264;-64
2023/03/12 05:38:32;;;;;;;8.87;7.87;;;;;;;0.57;100.00;96255.72;5054253;28;20232;-61
2023/03/12 05:41:00;;;;;;;8.93;8.13;;;;;;;0.52;100.00;96256.25;5056237;28;20222;-61
2023/03/12 05:43:26;;;;;;;8.93;8.13;;;;;;;0.50;100.00;96254.84;5056486;28;20578;-63
2023/03/12 05:45:52;;;;;;;12.43;8.83;;;;;;;0.57;100.00;96260.88;5055876;28;20607;-63
2023/03/12 05:48:18;;;;;;;8.90;8.03;;;;;;;0.58;100.00;96258.13;5055548;28;20280;-63
2023/03/12 05:50:43;;;;;;;11.10;8.10;;;;;;;0.59;100.00;96262.31;5055906;28;20284;-63
2023/03/12 05:53:09;;;;;;;9.47;8.47;;;;;;;0.59;100.00;96266.66;5055024;28;20186;-61
2023/03/12 05:55:36;;;;;;;10.30;8.17;;;;;;;0.73;100.00;96258.94;5055647;28;20174;-63
2023/03/12 05:58:03;;;;;;;9.53;8.23;;;;;;;0.65;100.00;96263.38;5055434;28;20201;-63
2023/03/12 06:00:29;;;;;;;9.87;8.33;;;;;;;0.56;100.00;96278.13;5050554;28;20616;-64
2023/03/12 06:02:54;;;;;;;10.13;7.77;;;;;;;0.76;100.00;96278.41;5048475;28;20242;-63
2023/03/12 06:05:20;;;;;;;9.70;8.53;;;;;;;0.68;100.00;96275.91;5055054;28;20188;-63
2023/03/12 06:07:45;;;;;;;10.73;8.00;;;;;;;0.61;100.00;96275.84;5055060;28;20247;-63
2023/03/12 06:10:11;;;;;;;11.17;8.13;;;;;;;0.56;100.00;96285.84;5052676;28;20224;-63
2023/03/12 06:12:37;;;;;;;9.30;8.40;;;;;;;0.64;100.00;96279.84;5055008;28;20181;-63
2023/03/12 06:15:02;;;;;;;9.87;8.87;;;;;;;0.64;100.00;96278.06;5055465;28;20650;-63
2023/03/12 06:17:29;;;;;;;10.87;9.00;;;;;;;0.66;100.00;96270.97;5055445;28;20198;-63
2023/03/12 06:19:54;;;;;;;10.80;9.20;;;;;;;0.70;100.00;96264.47;5054769;28;20657;-63
2023/03/12 06:22:20;;;;;;;10.47;8.77;;;;;;;0.85;100.00;96267.03;5055010;28;20178;-60
2023/03/12 06:24:46;;;;;;;9.43;8.30;;;;;;;0.74;100.00;96267.47;5055471;28;20237;-61
2023/03/12 06:27:13;;;;;;;11.93;8.73;;;;;;;0.78;100.00;96271.31;5055243;28;20548;-63
2023/03/12 06:29:39;;;;;;;9.47;8.57;;;;;;;0.78;100.00;96273.91;5058761;28;20273;-62
2023/03/12 06:32:04;;;;;;;9.40;8.50;;;;;;;0.92;100.00;96260.19;5055482;28;20174;-64
2023/03/12 06:34:30;;;;;;;10.83;8.00;;;;;;;0.92;100.00;96261.97;5055454;28;20184;-64
2023/03/12 06:36:55;;;;;;;9.27;8.30;;;;;;;1.06;100.00;96259.34;5055427;28;20184;-63
2023/03/12 06:39:21;;;;;;;9.87;8.00;;;;;;;1.02;100.00;96260.69;5055356;28;20240;-63
2023/03/12 06:41:46;;;;;;;12.27;8.37;;;;;;;1.00;100.00;96270.41;5055629;28;20186;-63
2023/03/12 06:44:12;;;;;;;9.90;7.93;;;;;;;0.96;100.00;96258.03;5055311;28;20209;-63
2023/03/12 06:46:37;;;;;;;12.77;8.40;;;;;;;0.96;100.00;96265.78;5055525;28;20552;-63
2023/03/12 06:49:03;;;;;;;11.00;9.90;;;;;;;0.98;100.00;96262.03;5054538;28;20241;-63
2023/03/12 06:51:29;;;;;;;10.77;8.77;;;;;;;0.92;100.00;96259.38;5056358;28;20194;-63
2023/03/12 06:53:54;;;;;;;10.53;9.30;;;;;;;0.89;100.00;96255.41;5054017;28;20185;-64
2023/03/12 06:56:20;;;;;;;11.13;10.03;;;;;;;0.75;100.00;96256.19;5053483;28;20174;-62
2023/03/12 06:58:45;;;;;;;15.20;10.77;;;;;;;0.82;100.00;96254.50;5055375;28;20213;-62
2023/03/12 07:01:12;;;;;;;13.20;10.97;;;;;;;0.79;100.00;96258.22;5036357;28;20265;-62
2023/03/12 07:03:38;;;;;;;11.03;9.93;;;;;;;0.76;100.00;96261.16;5035428;28;20183;-63
2023/03/12 07:06:20;;;;;;;14.53;10.37;;;;;;;0.71;100.00;96260.91;5035957;28;20181;-62
2023/03/12 07:08:46;;;;;;;13.27;10.60;;;;;;;0.79;100.00;96262.56;5034990;28;20206;-63
2023/03/12 07:11:12;;;;;;;12.67;9.80;;;;;;;0.90;100.00;96256.97;5035228;28;20201;-60
2023/03/12 07:13:38;;;;;;;11.17;10.07;;;;;;;0.90;100.00;96259.53;5036245;28;20175;-63
2023/03/12 07:16:09;;;;;;;10.90;9.80;;;;;;;0.92;100.00;96260.19;5035463;28;20178;-63
2023/03/12 07:18:35;;;;;;;10.73;9.73;;;;;;;0.83;100.00;96258.69;5035629;28;20237;-62
2023/03/12 07:21:01;;;;;;;10.90;9.23;;;;;;;0.95;100.00;96262.38;5035903;28;20202;-63
2023/03/12 07:23:27;;;;;;;12.20;9.43;;;;;;;0.95;100.00;96261.63;5034731;28;20205;-62
2023/03/12 07:25:52;;;;;;;9.63;8.43;;;;;;;1.22;100.00;96266.13;5037648;28;20174;-70
2023/03/12 07:28:18;;;;;;;11.07;9.13;;;;;;;2.64;100.00;96272.94;5036518;28;20202;-68
2023/03/12 07:30:49;;;;;;;12.50;9.50;;;;;;;1.69;100.00;96275.94;5036130;28;20215;-70
2023/03/12 07:33:16;;;;;;;12.03;9.47;;;;;;;1.51;100.00;96258.28;5035273;28;20190;-67
2023/03/12 07:35:42;;;;;;;11.53;9.27;;;;;;;1.44;100.00;96270.34;5033961;28;20198;-66
2023/03/12 07:38:08;;;;;;;9.67;8.83;;;;;;;1.30;100.00;96270.34;5032787;28;20206;-65
2023/03/12 07:40:34;;;;;;;12.80;8.73;;;;;;;1.35;100.00;96268.81;5034013;28;20199;-67
2023/03/12 07:43:00;;;;;;;13.40;9.90;;;;;;;1.21;100.00;96264.50;5034152;28;20167;-67
2023/03/12 07:45:26;;;;;;;11.57;9.40;;;;;;;1.40;100.00;96265.69;5033878;28;20186;-67
2023/03/12 07:47:51;;;;;;;13.73;9.27;;;;;;;1.30;100.00;96271.16;5033668;28;20668;-66
2023/03/12 07:50:17;;;;;;;10.53;9.43;;;;;;;1.46;100.00;96270.94;5033758;28;20209;-66
2023/03/12 07:52:43;;;;;;;9.67;8.70;;;;;;;1.57;100.00;96267.88;5033503;28;20686;-67
2023/03/12 07:55:09;;;;;;;10.20;8.70;;;;;;;1.59;100.00;96255.59;5033474;28;20182;-66
2023/03/12 07:57:35;;;;;;;11.50;9.03;;;;;;;1.77;100.00;96260.34;5033130;28;20191;-67
2023/03/12 08:00:01;;;;;;;10.83;9.70;;;;;;;1.89;100.00;96258.88;5034850;28;20245;-67
2023/03/12 08:02:26;;;;;;;11.00;8.97;;;;;;;2.05;100.00;96261.19;5053372;28;20182;-66
2023/03/12 08:04:52;;;;;;;10.67;9.77;;;;;;;1.78;100.00;96263.72;5053289;28;20312;-66
2023/03/12 08:07:17;;;;;;;9.57;8.77;;;;;;;2.09;100.00;96262.41;5051391;28;20287;-66
2023/03/12 08:09:48;;;;;;;10.37;9.17;;;;;;;2.24;100.00;96262.31;5052264;28;20217;-66
2023/03/12 08:12:13;;;;;;;11.30;10.23;;;;;;;2.42;100.00;96270.41;5052665;28;20594;-65
2023/03/12 08:14:39;;;;;;;11.53;8.93;;;;;;;2.56;100.00;96263.56;5053204;28;20208;-66
2023/03/12 08:17:04;;;;;;;10.93;9.93;;;;;;;2.77;100.00;96270.44;5053287;28;20260;-65
2023/03/12 08:19:29;;;;;;;10.50;9.60;;;;;;;2.74;100.00;96270.81;5053188;28;20198;-68
2023/03/12 08:21:56;;;;;;;12.57;11.47;;;;;;;2.72;100.00;96272.81;5053345;28;20178;-65
2023/03/12 08:24:23;;;;;;;16.50;15.20;;;;;;;2.65;100.00;96267.59;5052726;28;20170;-66
2023/03/12 08:26:48;;;;;;;10.63;8.60;;;;;;;2.61;100.00;96276.72;5053156;28;20236;-65
2023/03/12 08:29:15;;;;;;;10.87;9.87;;;;;;;2.69;100.00;96275.75;5052951;28;20206;-65
2023/03/12 08:31:40;;;;;;;11.70;9.53;;;;;;;2.88;100.00;96278.47;5052601;28;20192;-66
2023/03/12 08:34:06;;;;;;;11.80;9.73;;;;;;;2.94;100.00;96276.91;5051708;28;20174;-67
2023/03/12 08:36:31;;;;;;;11.57;10.10;;;;;;;2.93;100.00;96276.13;5051606;28;20206;-66
2023/03/12 08:39:03;;;;;;;11.57;10.30;;;;;;;2.98;100.00;96283.28;5052604;28;20213;-66
2023/03/12 08:41:29;;;;;;;11.50;9.60;;;;;;;3.01;100.00;96284.72;5052228;28;20217;-66
2023/03/12 08:44:01;;;;;;;10.63;9.53;;;;;;;2.85;100.00;96280.63;5052433;28;20272;-66
2023/03/12 08:46:26;;;;;;;12.03;10.33;;;;;;;2.94;100.00;96287.25;5052534;28;20630;-66
2023/03/12 08:48:52;;;;;;;14.63;10.23;;;;;;;3.17;100.00;96284.41;5051453;28;20209;-66
2023/03/12 08:51:18;;;;;;;11.37;9.47;;;;;;;3.40;100.00;96278.91;5051391;28;20206;-66
2023/03/12 08:53:44;;;;;;;10.33;9.33;;;;;;;3.58;100.00;96284.31;5052241;28;20185;-65
2023/03/12 08:56:09;;;;;;;11.17;10.07;;;;;;;3.76;100.00;96287.19;5052466;28;20197;-66
2023/03/12 08:58:35;;;;;;;11.10;10.00;;;;;;;3.56;100.00;96286.34;5052401;28;20212;-66
2023/03/12 09:01:00;;;;;;;13.50;9.93;;;;;;;3.68;100.00;96292.53;5034702;28;20230;-65
2023/03/12 09:03:26;;;;;;;11.50;9.90;;;;;;;3.85;100.00;96286.00;5032490;28;20206;-66
2023/03/12 09:06:12;;;;;;;10.30;9.30;;;;;;;3.74;100.00;96289.16;5031626;28;20599;-66
2023/03/12 09:08:40;;;;;;;10.13;8.83;;;;;;;3.82;100.00;96286.41;5041239;28;20210;-66
2023/03/12 09:11:08;;;;;;;10.57;9.57;;;;;;;4.00;100.00;96291.00;5033697;28;20712;-66
2023/03/12 09:13:33;;;;;;;12.40;9.97;;;;;;;3.99;100.00;96276.44;5031695;28;20183;-68
2023/03/12 09:16:00;;;;;;;11.10;9.97;;;;;;;3.92;100.00;96281.63;5030674;28;20680;-65
2023/03/12 09:18:26;;;;;;;12.63;11.43;;;;;;;4.06;100.00;96285.84;5032208;28;20221;-66
2023/03/12 09:20:52;;;;;;;13.20;12.00;;;;;;;4.15;100.00;96279.47;5032098;28;20631;-66
2023/03/12 09:23:17;;;;;;;13.53;11.37;;;;;;;4.17;100.00;96284.47;5030693;28;20194;-66
2023/03/12 09:25:46;;;;;;;12.20;11.20;;;;;;;4.29;100.00;96282.84;5031927;28;20187;-65
2023/03/12 09:28:12;;;;;;;10.43;9.53;;;;;;;4.54;100.00;96290.84;5031791;28;20264;-65
2023/03/12 09:30:38;;;;;;;12.20;9.87;;;;;;;4.68;100.00;96294.22;5031691;28;20210;-65
2023/03/12 09:33:04;;;;;;;11.03;10.03;;;;;;;4.87;100.00;96293.38;5032153;28;20689;-65
2023/03/12 09:35:30;;;;;;;10.57;9.43;;;;;;;5.03;100.00;96293.75;5032159;28;20221;-65
2023/03/12 09:37:56;;;;;;;9.67;8.87;;;;;;;5.10;100.00;96296.34;5032004;28;20207;-65
2023/03/12 09:40:28;;;;;;;11.23;10.13;;;;;;;5.20;100.00;96301.91;5031753;28;20232;-65
2023/03/12 09:43:01;;;;;;;12.47;11.33;;;;;;;5.48;100.00;96303.41;5032323;28;20206;-65
2023/03/12 09:45:35;;;;;;;12.40;11.27;;;;;;;5.43;100.00;96302.22;5032408;28;20533;-65
2023/03/12 09:48:04;;;;;;;12.20;11.17;;;;;;;5.65;100.00;96297.53;5031900;28;20670;-65
2023/03/12 09:50:39;;;;;;;12.23;11.30;;;;;;;5.76;100.00;96304.66;5030693;28;20256;-65
2023/03/12 09:53:26;;;;;;;12.30;11.30;;;;;;;6.05;100.00;96313.75;5031490;28;20182;-65
2023/03/12 09:55:54;;;;;;;10.53;9.63;;;;;;;6.17;100.00;96308.66;5031589;28;20189;-65
2023/03/12 09:58:35;;;;;;;11.27;10.03;;;;;;;6.23;100.00;96310.44;5028886;28;20723;-65
2023/03/12 10:01:31;;;;;;;11.07;10.03;;;;;;;6.27;100.00;96311.59;5037596;28;20320;-66
2023/03/12 10:04:15;;;;;;;11.17;10.27;;;;;;;6.39;100.00;96311.72;5051473;28;20196;-64
2023/03/12 10:07:11;;;;;;;11.40;10.30;;;;;;;6.67;100.00;96312.09;5051779;28;20189;-65
2023/03/12 10:09:44;;;;;;;11.10;10.20;;;;;;;6.88;100.00;96309.09;5050112;28;20273;-65
2023/03/12 10:12:36;;;;;;;8.40;7.70;;;;;;;7.10;100.00;96310.28;5052050;28;20248;-65
2023/03/12 10:15:07;;;;;;;7.20;6.57;;;;;;;7.51;100.00;96316.66;5052396;28;20170;-66
2023/03/12 10:17:38;;;;;;;6.43;5.93;;;;;;;7.72;100.00;96318.00;5051833;28;20182;-66
2023/03/12 10:20:06;;;;;;;6.73;6.13;;;;;;;7.49;100.00;96316.88;5052033;28;20180;-66
2023/03/12 10:22:50;;;;;;;6.90;6.30;;;;;;;7.87;100.00;96318.41;5051516;28;20171;-66
2023/03/12 10:25:39;;;;;;;6.53;6.00;;;;;;;8.00;100.00;96320.84;5053038;28;20174;-64
2023/03/12 10:28:15;;;;;;;5.93;5.53;;;;;;;8.37;100.00;96318.13;5040881;28;20194;-66
2023/03/12 10:30:49;;;;;;;6.10;5.63;;;;;;;8.43;100.00;96320.66;5054771;28;20220;-66
2023/03/12 10:33:17;;;;;;;5.70;5.20;;;;;;;8.42;100.00;96315.66;5054825;28;20208;-66
2023/03/12 10:35:44;;;;;;;5.77;5.27;;;;;;;8.59;100.00;96312.16;5055044;28;20166;-67
2023/03/12 10:38:16;;;;;;;4.73;4.33;;;;;;;8.58;100.00;96315.03;5055120;28;20209;-68
2023/03/12 10:40:42;;;;;;;5.70;5.20;;;;;;;8.62;100.00;96318.78;5055101;28;20185;-67
2023/03/12 10:43:08;;;;;;;6.37;5.77;;;;;;;8.52;100.00;96337.63;5054289;28;20184;-66
2023/03/12 10:45:52;;;;;;;5.37;4.87;;;;;;;8.48;100.00;96336.44;5054560;28;20289;-65
2023/03/12 10:48:20;;;;;;;5.27;4.87;;;;;;;8.51;100.00;96350.88;5054634;28;20297;-67
2023/03/12 10:51:09;;;;;;;5.70;5.20;;;;;;;8.29;100.00;96347.97;5054633;28;20209;-66
2023/03/12 10:53:38;;;;;;;4.60;4.30;;;;;;;8.12;100.00;96350.41;5054196;28;20267;-66
2023/03/12 10:56:09;;;;;;;5.53;4.97;;;;;;;8.40;100.00;96356.88;5054542;28;20186;-66
2023/03/12 10:58:45;;;;;;;4.60;4.20;;;;;;;8.40;100.00;96364.72;5052506;28;20682;-66
2023/03/12 11:01:28;;;;;;;4.83;4.43;;;;;;;8.40;100.00;96364.72;5052579;28;20781;-67
2023/03/12 11:04:14;;;;;;;4.20;4.00;;;;;;;8.32;100.00;96360.59;5038842;28;20643;-66
2023/03/12 11:06:39;;;;;;;5.87;5.57;;;;;;;8.61;100.00;96353.75;5054185;28;20180;-67
2023/03/12 11:09:15;;;;;;;5.50;5.10;;;;;;;9.07;100.00;96359.03;5053520;28;20198;-66
2023/03/12 11:11:41;;;;;;;3.53;3.33;;;;;;;9.68;100.00;96354.31;5036689;28;20261;-67
2023/03/12 11:14:16;;;;;;;3.40;3.20;;;;;;;9.93;100.00;96352.16;5054247;28;20603;-67
2023/03/12 11:16:41;;;;;;;4.70;4.40;;;;;;;10.07;100.00;96361.34;5053998;28;20177;-66
2023/03/12 11:19:12;;;;;;;11.87;11.20;;;;;;;10.25;100.00;96358.56;5052743;28;20206;-67
2023/03/12 11:21:39;;;;;;;5.27;5.03;;;;;;;10.07;100.00;96356.13;5054164;28;20296;-67
2023/03/12 11:24:14;;;;;;;4.97;4.67;;;;;;;10.11;100.00;96362.47;5054149;28;20631;-66
2023/03/12 11:26:52;;;;;;;5.73;3.40;;;;;;;10.22;100.00;96363.47;5054073;28;20177;-67
2023/03/12 11:29:30;;;;;;;4.17;3.87;;;;;;;10.06;100.00;96358.97;5053129;28;20208;-66